createdAt,value
2023-05-24T00:04:30.641Z,51.10
2023-05-24T00:09:33.436Z,51.00
2023-05-24T00:14:35.833Z,50.96
2023-05-24T00:19:38.844Z,51.24
2023-05-24T00:24:41.226Z,51.61
2023-05-24T00:29:43.692Z,51.57
2023-05-24T00:34:45.893Z,52.16
2023-05-24T00:39:48.145Z,52.52
2023-05-24T00:44:50.394Z,52.38
2023-05-24T00:49:52.711Z,53.17
2023-05-24T00:54:55.043Z,52.86
2023-05-24T00:59:57.616Z,53.47
2023-05-24T01:05:00.462Z,52.91
2023-05-24T01:10:10.740Z,52.92
2023-05-24T01:15:26.001Z,53.28
2023-05-24T01:20:32.900Z,53.37
2023-05-24T01:25:53.470Z,53.26
2023-05-24T01:30:56.617Z,53.50
2023-05-24T01:35:58.983Z,53.47
2023-05-24T01:41:11.813Z,53.55
2023-05-24T01:46:17.055Z,53.52
2023-05-24T01:51:23.172Z,53.19
2023-05-24T01:56:28.007Z,53.04
2023-05-24T02:01:31.125Z,53.27
2023-05-24T02:06:33.490Z,52.76
2023-05-24T02:11:35.873Z,52.57
2023-05-24T02:16:43.150Z,52.83
2023-05-24T02:21:45.491Z,52.80
2023-05-24T02:26:50.112Z,53.53
2023-05-24T02:31:56.744Z,55.12
2023-05-24T02:36:59.368Z,54.53
2023-05-24T02:42:02.008Z,53.55
2023-05-24T02:47:04.314Z,53.57
2023-05-24T02:52:06.748Z,54.02
2023-05-24T02:57:09.035Z,54.14
2023-05-24T03:02:14.171Z,53.66
2023-05-24T03:07:16.556Z,53.43
2023-05-24T03:12:18.802Z,53.34
2023-05-24T03:17:21.139Z,53.47
2023-05-24T03:22:23.465Z,53.67
2023-05-24T03:27:25.786Z,53.73
2023-05-24T03:32:28.183Z,53.69
2023-05-24T03:37:30.515Z,54.04
2023-05-24T03:42:32.901Z,54.18
2023-05-24T03:47:35.262Z,54.35
2023-05-24T03:52:37.569Z,54.92
2023-05-24T03:57:39.768Z,54.75
2023-05-24T04:02:42.575Z,54.60
2023-05-24T04:07:46.769Z,54.89
2023-05-24T04:12:49.113Z,54.73
2023-05-24T04:17:55.461Z,55.09
2023-05-24T04:22:57.976Z,55.34
2023-05-24T04:28:00.736Z,54.47
2023-05-24T04:33:04.211Z,54.39
2023-05-24T04:38:06.592Z,54.33
2023-05-24T04:43:11.370Z,54.84
2023-05-24T04:48:13.599Z,54.68
2023-05-24T04:53:15.881Z,54.27
2023-05-24T04:58:18.233Z,54.53
2023-05-24T05:03:20.593Z,54.18
2023-05-24T05:08:22.867Z,53.86
2023-05-24T05:13:25.128Z,54.37
2023-05-24T05:18:27.306Z,54.53
2023-05-24T05:23:32.667Z,54.58
2023-05-24T05:28:35.035Z,54.96
2023-05-24T05:33:37.330Z,54.44
2023-05-24T05:38:40.791Z,54.11
2023-05-24T05:43:43.203Z,54.65
2023-05-24T05:48:46.437Z,54.17
2023-05-24T05:53:48.900Z,53.92
2023-05-24T05:58:51.287Z,54.63
2023-05-24T06:03:53.764Z,53.79
2023-05-24T06:08:56.395Z,53.38
2023-05-24T06:13:58.693Z,54.12
2023-05-24T06:19:06.081Z,53.36
2023-05-24T06:24:10.236Z,53.15
2023-05-24T06:29:14.342Z,52.90
2023-05-24T06:34:21.769Z,53.48
2023-05-24T06:39:25.880Z,52.84
2023-05-24T06:44:34.884Z,52.53
2023-05-24T06:49:37.524Z,51.95
2023-05-24T06:54:39.777Z,51.85
2023-05-24T06:59:42.143Z,51.69
2023-05-24T07:04:45.314Z,50.99
2023-05-24T07:09:48.000Z,50.46
2023-05-24T07:14:50.299Z,50.47
2023-05-24T07:19:52.945Z,50.47
2023-05-24T07:24:56.352Z,50.03
2023-05-24T07:29:59.199Z,49.51
2023-05-24T07:35:01.524Z,49.49
2023-05-24T07:40:05.062Z,49.14
2023-05-24T07:45:11.750Z,48.76
2023-05-24T07:50:14.043Z,48.43
2023-05-24T07:55:16.561Z,47.71
2023-05-24T08:00:20.551Z,47.42
2023-05-24T08:05:22.890Z,47.00
2023-05-24T08:10:25.672Z,46.28
2023-05-24T08:15:27.892Z,45.86
2023-05-24T08:20:30.240Z,45.52
2023-05-24T08:25:33.361Z,45.00
2023-05-24T08:30:35.687Z,44.05
2023-05-24T08:35:38.162Z,42.21
2023-05-24T08:40:40.439Z,42.47
2023-05-24T08:45:43.801Z,41.61
2023-05-24T08:50:47.375Z,41.18
2023-05-24T08:55:53.682Z,41.49
2023-05-24T09:00:56.289Z,41.22
2023-05-24T09:05:58.986Z,40.78
2023-05-24T09:11:04.003Z,41.01
2023-05-24T09:16:06.881Z,40.32
2023-05-24T09:21:11.140Z,39.96
2023-05-24T09:26:13.856Z,38.92
2023-05-24T09:31:16.085Z,38.67
2023-05-24T09:36:18.766Z,37.61
2023-05-24T09:41:21.048Z,37.53
2023-05-24T09:46:23.478Z,37.17
2023-05-24T09:51:26.223Z,36.73
2023-05-24T09:56:28.954Z,36.52
2023-05-24T10:01:34.168Z,36.37
2023-05-24T10:06:40.559Z,35.67
2023-05-24T10:11:43.556Z,35.48
2023-05-24T10:16:46.039Z,35.09
2023-05-24T10:21:50.079Z,34.51
2023-05-24T10:26:54.202Z,33.70
2023-05-24T10:31:57.362Z,33.41
2023-05-24T10:37:00.006Z,33.28
2023-05-24T10:42:09.577Z,32.97
2023-05-24T10:47:14.456Z,32.37
2023-05-24T10:52:16.801Z,31.65
2023-05-24T10:57:25.013Z,31.31
2023-05-24T11:02:36.156Z,31.53
2023-05-24T11:07:45.214Z,30.88
2023-05-24T11:12:48.669Z,29.73
2023-05-24T11:18:13.197Z,29.89
2023-05-24T11:23:16.539Z,29.14
2023-05-24T11:28:19.396Z,29.04
2023-05-24T11:33:23.901Z,28.82
2023-05-24T11:38:27.915Z,28.74
2023-05-24T11:43:31.949Z,28.55
2023-05-24T11:48:34.409Z,28.10
2023-05-24T11:53:36.708Z,28.13
2023-05-24T11:58:53.121Z,28.28
2023-05-24T12:03:55.952Z,27.13
2023-05-24T12:08:58.315Z,26.65
2023-05-24T12:14:00.866Z,26.43
2023-05-24T12:19:09.467Z,26.55
2023-05-24T12:24:20.039Z,26.99
2023-05-24T12:29:22.717Z,26.65
2023-05-24T12:34:25.143Z,26.23
2023-05-24T12:39:35.815Z,25.65
2023-05-24T12:44:39.093Z,25.37
2023-05-24T12:49:41.478Z,25.43
2023-05-24T12:54:43.838Z,25.24
2023-05-24T12:59:46.378Z,25.68
2023-05-24T13:04:48.986Z,25.44
2023-05-24T13:09:51.506Z,25.34
2023-05-24T13:14:54.305Z,24.74
2023-05-24T13:19:57.882Z,24.46
2023-05-24T13:25:00.153Z,24.39
2023-05-24T13:30:03.146Z,24.68
2023-05-24T13:35:08.290Z,24.63
2023-05-24T13:40:11.460Z,25.05
2023-05-24T13:45:13.929Z,24.53
2023-05-24T13:50:16.567Z,24.94
2023-05-24T13:55:19.055Z,24.87
2023-05-24T14:00:22.044Z,25.30
2023-05-24T14:05:27.799Z,25.68
2023-05-24T14:10:30.712Z,26.37
2023-05-24T14:15:34.446Z,26.62
2023-05-24T14:20:38.482Z,26.83
2023-05-24T14:25:42.699Z,27.23
2023-05-24T14:30:45.575Z,27.48
2023-05-24T14:35:48.668Z,27.69
2023-05-24T14:40:51.588Z,26.91
2023-05-24T14:45:54.203Z,26.13
2023-05-24T14:50:56.660Z,26.01
2023-05-24T14:55:59.107Z,25.63
2023-05-24T15:01:01.790Z,25.63
2023-05-24T15:06:05.491Z,25.77
2023-05-24T15:11:08.147Z,25.88
2023-05-24T15:16:10.488Z,26.38
2023-05-24T15:21:12.751Z,26.57
2023-05-24T15:26:15.033Z,27.06
2023-05-24T15:31:18.297Z,27.29
2023-05-24T15:36:20.751Z,27.41
2023-05-24T15:41:23.216Z,27.89
2023-05-24T15:46:25.812Z,28.29
2023-05-24T15:56:33.364Z,29.15
2023-05-24T16:01:35.822Z,29.26
2023-05-24T16:06:38.726Z,29.43
2023-05-24T16:11:41.443Z,29.28
2023-05-24T16:16:45.043Z,29.51
2023-05-24T16:21:47.362Z,28.97
2023-05-24T16:26:49.629Z,28.71
2023-05-24T16:31:52.399Z,28.55
2023-05-24T16:36:54.762Z,28.77
2023-05-24T16:41:58.207Z,29.20
2023-05-24T16:47:02.743Z,29.39
2023-05-24T16:52:05.242Z,29.82
2023-05-24T16:57:08.012Z,30.22
2023-05-24T17:02:10.309Z,30.63
2023-05-24T17:07:12.608Z,31.27
2023-05-24T17:12:15.310Z,32.21
2023-05-24T17:17:17.669Z,33.52
2023-05-24T17:22:20.926Z,33.51
2023-05-24T17:27:23.153Z,33.56
2023-05-24T17:32:25.390Z,34.18
2023-05-24T17:37:27.690Z,34.29
2023-05-24T17:42:30.031Z,34.50
2023-05-24T17:47:32.333Z,34.50
2023-05-24T17:52:34.626Z,34.98
2023-05-24T17:57:36.846Z,35.01
2023-05-24T18:02:39.123Z,35.31
2023-05-24T18:07:41.459Z,36.37
2023-05-24T18:12:44.126Z,38.97
2023-05-24T18:17:46.560Z,39.66
2023-05-24T18:22:48.834Z,38.76
2023-05-24T18:27:51.224Z,38.05
2023-05-24T18:33:05.343Z,37.77
2023-05-24T18:38:09.590Z,37.41
2023-05-24T18:43:14.264Z,37.76
2023-05-24T18:48:16.781Z,37.85
2023-05-24T18:53:19.103Z,37.90
2023-05-24T18:58:21.435Z,38.15
2023-05-24T19:03:23.859Z,37.78
2023-05-24T19:08:26.420Z,38.09
2023-05-24T19:13:28.859Z,38.41
2023-05-24T19:18:31.270Z,38.52
2023-05-24T19:23:33.636Z,38.86
2023-05-24T19:28:38.271Z,39.29
2023-05-24T19:33:52.041Z,40.21
2023-05-24T19:39:01.750Z,42.93
2023-05-24T19:44:04.196Z,42.25
2023-05-24T19:49:06.622Z,42.44
2023-05-24T19:54:09.700Z,42.46
2023-05-24T19:59:12.645Z,41.98
2023-05-24T20:04:15.376Z,41.93
2023-05-24T20:09:19.199Z,41.98
2023-05-24T20:14:21.723Z,42.06
2023-05-24T20:19:24.197Z,42.21
2023-05-24T20:24:26.569Z,42.58
2023-05-24T20:29:29.090Z,42.69
2023-05-24T20:34:31.489Z,42.76
2023-05-24T20:39:33.925Z,43.38
2023-05-24T20:44:36.287Z,43.20
2023-05-24T20:49:38.691Z,43.44
2023-05-24T20:54:41.108Z,43.86
2023-05-24T20:59:43.603Z,43.57
2023-05-24T21:04:46.106Z,44.31
2023-05-24T21:09:48.491Z,43.85
2023-05-24T21:14:54.332Z,43.64
2023-05-24T21:19:56.828Z,43.62
2023-05-24T21:24:59.371Z,44.08
2023-05-24T21:30:01.838Z,43.94
2023-05-24T21:35:04.368Z,44.31
2023-05-24T21:40:16.190Z,44.64
2023-05-24T21:45:18.687Z,44.71
2023-05-24T21:50:21.124Z,44.84
2023-05-24T21:55:23.431Z,46.45
2023-05-24T22:00:27.656Z,46.81
2023-05-24T22:05:30.139Z,46.34
2023-05-24T22:10:32.577Z,46.31
2023-05-24T22:15:34.972Z,46.19
2023-05-24T22:20:37.432Z,45.93
2023-05-24T22:25:39.797Z,45.96
2023-05-24T22:30:42.191Z,45.93
2023-05-24T22:35:44.798Z,45.58
2023-05-24T22:40:47.543Z,46.03
2023-05-24T22:45:50.105Z,46.21
2023-05-24T22:50:58.016Z,46.45
2023-05-24T22:56:00.352Z,46.78
2023-05-24T23:01:02.788Z,47.21
2023-05-24T23:06:05.941Z,46.90
2023-05-24T23:11:10.915Z,46.81
2023-05-24T23:16:13.508Z,46.80
2023-05-24T23:21:17.145Z,46.64
2023-05-24T23:26:20.040Z,46.75
2023-05-24T23:31:22.990Z,47.37
2023-05-24T23:36:25.450Z,47.75
2023-05-24T23:41:27.773Z,48.00
2023-05-24T23:46:30.746Z,48.28
2023-05-24T23:51:36.251Z,48.34
2023-05-24T23:56:41.390Z,48.51
